Time;durP1;ratioP1;P1;durP2;ratioP2;P2;SDS_P1;SDS_P2;PMS_P1;PMS_P2;Temp;Humidity;BMP_temperature;BMP_pressure;BME280_temperature;BME280_humidity;BME280_pressure;Samples;Min_cycle;Max_cycle;Signal;HPM_P1;HPM_P2
2024/01/10 00:01:26;;;;;;;10.07;8.52;;;;;;;;;;5080955;28;20046;-72
2024/01/10 00:03:55;;;;;;;10.20;8.88;;;;;;;;;;5078335;28;21158;-70
2024/01/10 00:06:20;;;;;;;19.08;17.23;;;;;;;;;;5071731;28;20065;-69
2024/01/10 00:08:46;;;;;;;10.73;9.32;;;;;;;;;;5063467;28;20024;-68
2024/01/10 00:11:11;;;;;;;10.18;7.72;;;;;;;;;;5062376;28;20040;-70
2024/01/10 00:13:36;;;;;;;10.88;8.40;;;;;;;;;;5061758;28;20123;-70
2024/01/10 00:16:02;;;;;;;8.98;8.00;;;;;;;;;;5063747;28;20032;-70
2024/01/10 00:18:27;;;;;;;9.15;8.25;;;;;;;;;;5060496;28;20074;-69
2024/01/10 00:20:53;;;;;;;11.63;8.82;;;;;;;;;;5064898;28;20036;-69
2024/01/10 00:23:19;;;;;;;11.85;8.68;;;;;;;;;;5059331;28;20490;-70
2024/01/10 00:25:45;;;;;;;9.40;8.50;;;;;;;;;;5060404;28;20108;-70
2024/01/10 00:28:10;;;;;;;8.80;7.90;;;;;;;;;;5053651;28;20040;-68
2024/01/10 00:30:37;;;;;;;9.80;7.88;;;;;;;;;;5059796;28;20440;-71
2024/01/10 00:33:02;;;;;;;7.90;7.10;;;;;;;;;;5061914;28;21362;-68
2024/01/10 00:35:28;;;;;;;8.43;7.15;;;;;;;;;;5060111;28;20031;-69
2024/01/10 00:37:53;;;;;;;8.57;7.63;;;;;;;;;;5058123;28;20043;-69
2024/01/10 00:40:19;;;;;;;8.23;7.43;;;;;;;;;;5059041;28;20040;-69
2024/01/10 00:42:44;;;;;;;8.73;7.60;;;;;;;;;;5062508;28;20468;-71
2024/01/10 00:45:10;;;;;;;7.80;7.10;;;;;;;;;;5064561;28;20020;-66
2024/01/10 00:47:35;;;;;;;7.88;7.07;;;;;;;;;;5062458;28;20024;-65
2024/01/10 00:50:00;;;;;;;8.70;7.28;;;;;;;;;;5064629;28;20104;-70
2024/01/10 00:52:26;;;;;;;9.20;7.05;;;;;;;;;;5063061;28;20021;-69
2024/01/10 00:54:51;;;;;;;8.30;7.18;;;;;;;;;;5063921;28;20044;-68
2024/01/10 00:57:16;;;;;;;7.47;6.78;;;;;;;;;;5063477;28;20362;-72
2024/01/10 00:59:42;;;;;;;9.32;7.13;;;;;;;;;;5064975;28;20105;-71
2024/01/10 01:02:07;;;;;;;8.13;7.32;;;;;;;;;;5060961;28;20081;-70
2024/01/10 01:04:32;;;;;;;7.60;6.68;;;;;;;;;;5063638;28;20016;-72
2024/01/10 01:06:58;;;;;;;8.80;7.15;;;;;;;;;;5065005;28;20024;-72
2024/01/10 01:09:24;;;;;;;7.40;6.70;;;;;;;;;;5064234;28;20047;-70
2024/01/10 01:11:51;;;;;;;9.65;6.95;;;;;;;;;;5084137;28;20032;-69
2024/01/10 01:14:16;;;;;;;9.65;7.97;;;;;;;;;;5082059;28;20384;-70
2024/01/10 01:16:42;;;;;;;16.33;14.70;;;;;;;;;;5081069;28;20023;-71
2024/01/10 01:19:07;;;;;;;12.98;11.68;;;;;;;;;;5081264;28;20423;-70
2024/01/10 01:21:32;;;;;;;8.13;7.32;;;;;;;;;;5056837;28;20086;-68
2024/01/10 01:23:58;;;;;;;8.30;7.45;;;;;;;;;;5081955;28;20038;-69
2024/01/10 01:26:23;;;;;;;9.95;8.00;;;;;;;;;;5085140;28;20088;-66
2024/01/10 01:28:48;;;;;;;9.63;8.35;;;;;;;;;;5091382;28;20489;-69
2024/01/10 01:31:14;;;;;;;9.15;8.25;;;;;;;;;;5096983;28;20035;-68
2024/01/10 01:33:39;;;;;;;10.40;8.18;;;;;;;;;;5094495;28;20497;-66
2024/01/10 01:36:05;;;;;;;10.73;8.65;;;;;;;;;;5096104;28;20038;-72
2024/01/10 01:38:31;;;;;;;10.13;8.43;;;;;;;;;;5085945;28;20451;-72
2024/01/10 01:40:56;;;;;;;9.50;7.97;;;;;;;;;;5059316;28;20092;-71
2024/01/10 01:43:25;;;;;;;9.65;7.65;;;;;;;;;;5094374;28;20119;-69
2024/01/10 01:45:51;;;;;;;8.93;8.02;;;;;;;;;;5083263;28;20039;-66
2024/01/10 01:48:17;;;;;;;10.18;8.88;;;;;;;;;;5095465;28;20042;-69
2024/01/10 01:50:44;;;;;;;9.90;8.10;;;;;;;;;;5094376;28;20114;-68
2024/01/10 01:53:10;;;;;;;9.98;8.13;;;;;;;;;;5085920;28;21173;-66
2024/01/10 01:55:35;;;;;;;9.95;8.38;;;;;;;;;;5096698;28;20051;-70
2024/01/10 01:58:01;;;;;;;11.52;9.10;;;;;;;;;;5097036;28;20036;-69
2024/01/10 02:00:26;;;;;;;11.48;8.20;;;;;;;;;;5097454;28;20024;-70
2024/01/10 02:02:52;;;;;;;8.63;7.82;;;;;;;;;;5095477;28;20039;-69
2024/01/10 02:05:18;;;;;;;9.25;8.20;;;;;;;;;;5096713;28;20028;-68
2024/01/10 02:07:43;;;;;;;8.73;7.68;;;;;;;;;;5097766;28;20102;-66
2024/01/10 02:10:08;;;;;;;9.35;7.90;;;;;;;;;;5084104;28;20043;-68
2024/01/10 02:12:34;;;;;;;9.30;7.50;;;;;;;;;;5091783;28;20091;-69
2024/01/10 02:14:59;;;;;;;8.75;7.47;;;;;;;;;;5093856;28;21101;-69
2024/01/10 02:17:25;;;;;;;11.90;7.30;;;;;;;;;;5096053;28;20092;-71
2024/01/10 02:20:07;;;;;;;9.18;7.93;;;;;;;;;;5086477;28;20054;-69
2024/01/10 02:22:32;;;;;;;9.32;8.15;;;;;;;;;;5098051;28;20027;-68
2024/01/10 02:24:57;;;;;;;8.32;7.53;;;;;;;;;;5099581;28;20035;-66
2024/01/10 02:27:23;;;;;;;8.88;7.97;;;;;;;;;;5098552;28;20024;-70
2024/01/10 02:29:49;;;;;;;8.32;7.20;;;;;;;;;;5100405;28;20032;-68
2024/01/10 02:32:14;;;;;;;9.30;8.00;;;;;;;;;;5088126;28;20031;-70
2024/01/10 02:34:39;;;;;;;9.32;7.88;;;;;;;;;;5100482;28;20423;-68
2024/01/10 02:37:05;;;;;;;8.70;7.80;;;;;;;;;;5095578;28;20369;-70
2024/01/10 02:39:30;;;;;;;8.57;7.63;;;;;;;;;;5084030;28;20970;-69
2024/01/10 02:41:55;;;;;;;8.25;7.45;;;;;;;;;;5096943;28;20442;-69
2024/01/10 02:44:23;;;;;;;9.63;8.35;;;;;;;;;;5098702;28;20386;-70
2024/01/10 02:46:48;;;;;;;10.25;9.02;;;;;;;;;;5100522;28;20043;-71
2024/01/10 02:49:13;;;;;;;9.70;8.70;;;;;;;;;;5101925;28;20011;-71
2024/01/10 02:51:39;;;;;;;10.32;9.23;;;;;;;;;;5088589;28;20084;-71
2024/01/10 02:54:04;;;;;;;8.95;8.02;;;;;;;;;;5099959;28;20043;-68
2024/01/10 02:56:30;;;;;;;12.00;8.40;;;;;;;;;;5099356;28;20165;-70
2024/01/10 02:58:55;;;;;;;9.02;8.13;;;;;;;;;;5098592;28;20035;-66
2024/01/10 03:01:20;;;;;;;9.52;7.60;;;;;;;;;;5099304;28;20039;-69
2024/01/10 03:03:46;;;;;;;10.07;9.07;;;;;;;;;;5100626;28;20059;-69
2024/01/10 03:06:11;;;;;;;9.38;8.38;;;;;;;;;;5099843;28;20035;-69
2024/01/10 03:08:36;;;;;;;11.38;7.93;;;;;;;;;;5098510;28;20032;-69
2024/01/10 03:11:02;;;;;;;10.38;7.90;;;;;;;;;;5099082;28;20104;-71
2024/01/10 03:13:28;;;;;;;10.30;9.20;;;;;;;;;;5100087;28;20032;-69
2024/01/10 03:15:53;;;;;;;11.13;9.18;;;;;;;;;;5098076;28;20369;-67
2024/01/10 03:18:18;;;;;;;11.15;10.00;;;;;;;;;;5086889;28;20054;-68
2024/01/10 03:20:44;;;;;;;11.45;9.75;;;;;;;;;;5098473;28;20024;-69
2024/01/10 03:23:09;;;;;;;13.10;10.30;;;;;;;;;;5097058;28;20411;-67
2024/01/10 03:25:34;;;;;;;17.67;14.38;;;;;;;;;;5098521;28;20735;-66
2024/01/10 03:28:00;;;;;;;16.02;12.57;;;;;;;;;;5099113;28;20461;-68
2024/01/10 03:30:25;;;;;;;39.33;25.70;;;;;;;;;;5100351;28;20075;-69
2024/01/10 03:32:50;;;;;;;60.83;43.60;;;;;;;;;;5099201;28;20028;-70
2024/01/10 03:35:16;;;;;;;25.05;18.55;;;;;;;;;;5098622;28;20031;-70
2024/01/10 03:37:41;;;;;;;40.10;29.80;;;;;;;;;;5085678;28;20032;-71
2024/01/10 03:40:07;;;;;;;38.50;28.55;;;;;;;;;;5088940;28;20528;-70
2024/01/10 03:42:32;;;;;;;28.65;21.73;;;;;;;;;;5094851;28;20504;-70
2024/01/10 03:44:58;;;;;;;50.00;38.40;;;;;;;;;;5085437;28;20068;-70
2024/01/10 03:47:23;;;;;;;54.90;41.60;;;;;;;;;;5098231;28;20403;-68
2024/01/10 03:49:48;;;;;;;39.17;30.83;;;;;;;;;;5094828;28;20137;-69
2024/01/10 03:52:14;;;;;;;43.90;34.25;;;;;;;;;;5098598;28;20063;-69
2024/01/10 03:54:40;;;;;;;33.53;26.65;;;;;;;;;;5098119;28;20024;-70
2024/01/10 03:57:06;;;;;;;26.75;21.98;;;;;;;;;;5097233;28;20027;-70
2024/01/10 03:59:32;;;;;;;27.48;23.23;;;;;;;;;;5099025;28;20035;-69
2024/01/10 04:02:00;;;;;;;29.15;23.38;;;;;;;;;;5098367;28;20027;-68
2024/01/10 04:04:25;;;;;;;22.88;19.50;;;;;;;;;;5086820;28;20032;-71
2024/01/10 04:06:50;;;;;;;22.30;19.73;;;;;;;;;;5097291;28;20043;-70
2024/01/10 04:09:16;;;;;;;22.17;18.48;;;;;;;;;;5096688;28;20027;-70
2024/01/10 04:11:41;;;;;;;26.63;21.38;;;;;;;;;;5084245;28;20139;-69
2024/01/10 04:14:07;;;;;;;22.83;20.08;;;;;;;;;;5094606;28;20152;-70
2024/01/10 04:16:32;;;;;;;19.35;16.63;;;;;;;;;;5096645;28;20040;-65
2024/01/10 04:18:57;;;;;;;24.98;20.35;;;;;;;;;;5087785;28;20062;-69
2024/01/10 04:21:23;;;;;;;23.15;20.65;;;;;;;;;;5098230;28;20050;-72
2024/01/10 04:23:48;;;;;;;21.42;18.90;;;;;;;;;;5097077;28;20024;-68
2024/01/10 04:26:13;;;;;;;25.73;19.98;;;;;;;;;;5098558;28;20107;-70
2024/01/10 04:28:41;;;;;;;25.05;19.13;;;;;;;;;;5096881;28;20176;-70
2024/01/10 04:31:06;;;;;;;25.83;23.00;;;;;;;;;;5090051;28;20375;-68
2024/01/10 04:33:32;;;;;;;23.63;20.88;;;;;;;;;;5083963;28;20161;-68
2024/01/10 04:35:57;;;;;;;23.95;20.98;;;;;;;;;;5082564;28;20443;-66
2024/01/10 04:38:26;;;;;;;26.75;22.90;;;;;;;;;;5084949;28;20145;-69
2024/01/10 04:40:51;;;;;;;28.63;23.30;;;;;;;;;;5032784;27;20078;-70
2024/01/10 04:43:16;;;;;;;26.27;22.70;;;;;;;;;;5098753;27;20133;-68
2024/01/10 04:45:42;;;;;;;24.80;20.73;;;;;;;;;;5098443;27;20024;-69
2024/01/10 04:48:07;;;;;;;20.90;18.05;;;;;;;;;;5101158;27;20012;-68
2024/01/10 04:50:32;;;;;;;23.33;20.67;;;;;;;;;;5115390;27;20387;-69
2024/01/10 04:52:58;;;;;;;30.00;24.30;;;;;;;;;;5117606;27;20046;-68
2024/01/10 04:55:23;;;;;;;26.65;20.25;;;;;;;;;;5119686;27;20029;-69
2024/01/10 04:57:48;;;;;;;19.88;16.92;;;;;;;;;;5116429;27;20060;-69
2024/01/10 05:00:14;;;;;;;20.35;17.67;;;;;;;;;;5113254;27;20149;-69
2024/01/10 05:02:39;;;;;;;27.38;22.77;;;;;;;;;;5100727;27;20024;-69
2024/01/10 05:05:05;;;;;;;31.33;26.75;;;;;;;;;;5115316;27;20192;-69
2024/01/10 05:07:30;;;;;;;33.15;29.67;;;;;;;;;;5100231;28;20046;-68
2024/01/10 05:09:56;;;;;;;32.60;26.83;;;;;;;;;;5110817;27;20054;-65
2024/01/10 05:12:21;;;;;;;24.92;21.38;;;;;;;;;;5102771;27;20034;-68
2024/01/10 05:14:46;;;;;;;25.95;22.27;;;;;;;;;;5103764;27;20023;-69
2024/01/10 05:17:12;;;;;;;25.52;21.30;;;;;;;;;;5112739;27;20035;-66
2024/01/10 05:19:38;;;;;;;22.30;18.63;;;;;;;;;;5119147;27;20074;-69
2024/01/10 05:22:04;;;;;;;23.63;19.27;;;;;;;;;;5116373;27;20054;-69
2024/01/10 05:24:29;;;;;;;39.83;27.73;;;;;;;;;;5116989;27;20023;-69
2024/01/10 05:26:55;;;;;;;49.50;36.88;;;;;;;;;;5115023;27;20027;-69
2024/01/10 05:29:22;;;;;;;22.08;18.45;;;;;;;;;;5118637;27;20023;-69
2024/01/10 05:31:47;;;;;;;30.38;22.52;;;;;;;;;;5103617;27;20035;-68
2024/01/10 05:34:12;;;;;;;51.40;39.20;;;;;;;;;;5115255;27;20031;-68
2024/01/10 05:36:38;;;;;;;113.90;78.72;;;;;;;;;;5115919;28;20335;-69
2024/01/10 05:39:03;;;;;;;480.15;321.45;;;;;;;;;;5117014;28;20039;-69
2024/01/10 05:41:29;;;;;;;1008.60;671.17;;;;;;;;;;5115259;28;20031;-69
2024/01/10 05:43:54;;;;;;;626.67;441.13;;;;;;;;;;5117802;28;20030;-70
2024/01/10 05:46:20;;;;;;;157.55;101.30;;;;;;;;;;5112359;27;20043;-66
2024/01/10 05:48:46;;;;;;;692.80;490.75;;;;;;;;;;5094662;27;20045;-67
2024/01/10 05:51:12;;;;;;;385.88;246.35;;;;;;;;;;5120511;27;20027;-67
2024/01/10 05:53:37;;;;;;;566.45;392.58;;;;;;;;;;5118021;27;20049;-68
2024/01/10 05:56:03;;;;;;;354.98;232.07;;;;;;;;;;5119642;27;20350;-69
2024/01/10 05:58:28;;;;;;;406.80;302.30;;;;;;;;;;5118302;27;20139;-68
2024/01/10 06:00:54;;;;;;;173.05;128.65;;;;;;;;;;5117705;27;20099;-68
2024/01/10 06:03:20;;;;;;;495.65;342.65;;;;;;;;;;5120038;27;20113;-68
2024/01/10 06:05:45;;;;;;;296.05;202.65;;;;;;;;;;5120421;27;20156;-69
2024/01/10 06:08:11;;;;;;;222.88;156.70;;;;;;;;;;5121832;27;20054;-69
2024/01/10 06:10:36;;;;;;;171.40;123.82;;;;;;;;;;5121330;27;20055;-68
2024/01/10 06:13:01;;;;;;;91.32;39.38;;;;;;;;;;5120804;27;20412;-68
2024/01/10 06:15:27;;;;;;;354.65;281.85;;;;;;;;;;5120511;27;20098;-68
2024/01/10 06:17:52;;;;;;;337.73;256.15;;;;;;;;;;5122326;27;20065;-71
2024/01/10 06:20:18;;;;;;;391.60;270.60;;;;;;;;;;5122811;27;20039;-71
2024/01/10 06:22:43;;;;;;;213.50;149.90;;;;;;;;;;5111334;27;20133;-71
2024/01/10 06:25:09;;;;;;;153.52;109.80;;;;;;;;;;5112978;27;20034;-66
2024/01/10 06:27:34;;;;;;;54.45;21.40;;;;;;;;;;5121858;27;20027;-69
2024/01/10 06:30:00;;;;;;;193.65;141.63;;;;;;;;;;5121904;27;20041;-67
2024/01/10 06:32:25;;;;;;;86.57;69.05;;;;;;;;;;5119829;27;20027;-67
2024/01/10 06:34:51;;;;;;;103.57;84.00;;;;;;;;;;5119475;27;20338;-71
2024/01/10 06:37:16;;;;;;;105.13;85.30;;;;;;;;;;5119083;27;20031;-70
2024/01/10 06:39:41;;;;;;;82.18;65.03;;;;;;;;;;5121349;27;20038;-70
2024/01/10 06:42:08;;;;;;;58.83;47.22;;;;;;;;;;5120017;27;20284;-69
2024/01/10 06:44:33;;;;;;;51.40;43.47;;;;;;;;;;5121068;27;20046;-68
2024/01/10 06:46:59;;;;;;;64.85;54.33;;;;;;;;;;5102090;27;20023;-69
2024/01/10 06:49:24;;;;;;;128.27;102.75;;;;;;;;;;5118647;27;20034;-68
2024/01/10 06:51:49;;;;;;;186.68;151.13;;;;;;;;;;5119585;27;20453;-70
2024/01/10 06:54:15;;;;;;;239.43;196.77;;;;;;;;;;5119393;27;20450;-69
2024/01/10 06:56:41;;;;;;;212.32;159.73;;;;;;;;;;5117415;27;20118;-69
2024/01/10 06:59:06;;;;;;;157.15;122.97;;;;;;;;;;5117728;27;20031;-69
2024/01/10 07:01:32;;;;;;;138.73;109.13;;;;;;;;;;5106192;27;20407;-70
2024/01/10 07:03:57;;;;;;;183.18;141.93;;;;;;;;;;5119633;27;20042;-68
2024/01/10 07:06:23;;;;;;;202.60;154.93;;;;;;;;;;5120148;27;20753;-69
2024/01/10 07:08:49;;;;;;;238.40;191.15;;;;;;;;;;5117631;27;20201;-66
2024/01/10 07:11:14;;;;;;;223.35;185.13;;;;;;;;;;5118163;27;20102;-70
2024/01/10 07:13:40;;;;;;;186.02;153.93;;;;;;;;;;5120385;27;20540;-70
2024/01/10 07:16:06;;;;;;;336.48;291.23;;;;;;;;;;5118172;27;20058;-70
2024/01/10 07:18:31;;;;;;;276.55;224.77;;;;;;;;;;5119031;27;20027;-69
2024/01/10 07:20:56;;;;;;;311.08;238.98;;;;;;;;;;5118252;27;20432;-69
2024/01/10 07:23:24;;;;;;;216.80;175.57;;;;;;;;;;5120698;27;20415;-67
2024/01/10 07:25:50;;;;;;;185.68;144.68;;;;;;;;;;5116092;27;20035;-69
2024/01/10 07:28:15;;;;;;;200.80;152.57;;;;;;;;;;5119537;27;20019;-68
2024/01/10 07:30:41;;;;;;;162.07;127.55;;;;;;;;;;5118920;27;20027;-70
2024/01/10 07:33:07;;;;;;;134.88;108.78;;;;;;;;;;5119184;27;20027;-71
2024/01/10 07:35:33;;;;;;;84.93;70.32;;;;;;;;;;5118915;27;20023;-68
2024/01/10 07:37:58;;;;;;;109.50;95.95;;;;;;;;;;5117345;27;20343;-70
2024/01/10 07:40:23;;;;;;;86.65;76.68;;;;;;;;;;5120293;27;20473;-68
2024/01/10 07:42:49;;;;;;;100.10;89.30;;;;;;;;;;5102005;27;20099;-69
2024/01/10 07:45:14;;;;;;;70.55;58.90;;;;;;;;;;5118744;27;20339;-69
2024/01/10 07:47:39;;;;;;;92.35;65.20;;;;;;;;;;5118242;27;20070;-67
2024/01/10 07:50:06;;;;;;;57.30;45.53;;;;;;;;;;5119792;27;20039;-69
2024/01/10 07:52:32;;;;;;;36.85;31.60;;;;;;;;;;5118131;27;20030;-69
2024/01/10 07:54:57;;;;;;;29.65;26.63;;;;;;;;;;5118157;27;20023;-67
2024/01/10 07:57:23;;;;;;;38.63;33.15;;;;;;;;;;5120538;27;20042;-70
2024/01/10 07:59:48;;;;;;;29.13;26.02;;;;;;;;;;5116925;27;20078;-70
2024/01/10 08:02:13;;;;;;;33.63;30.08;;;;;;;;;;5119728;27;20035;-69
2024/01/10 08:04:39;;;;;;;42.42;37.92;;;;;;;;;;5119858;27;20042;-68
2024/01/10 08:07:04;;;;;;;57.22;51.05;;;;;;;;;;5117396;27;20095;-70
2024/01/10 08:09:29;;;;;;;64.20;53.33;;;;;;;;;;5119552;27;20051;-68
2024/01/10 08:11:55;;;;;;;73.97;65.38;;;;;;;;;;5119456;27;20046;-69
2024/01/10 08:14:20;;;;;;;127.78;99.90;;;;;;;;;;5118612;27;20114;-67
2024/01/10 08:16:45;;;;;;;66.85;58.45;;;;;;;;;;5119332;27;20031;-70
2024/01/10 08:19:11;;;;;;;62.38;54.80;;;;;;;;;;5119577;27;20045;-67
2024/01/10 08:21:36;;;;;;;68.20;59.53;;;;;;;;;;5118433;27;20035;-70
2024/01/10 08:24:02;;;;;;;97.90;84.00;;;;;;;;;;5118315;27;20365;-69
2024/01/10 08:26:28;;;;;;;122.80;104.68;;;;;;;;;;5117477;27;20062;-69
2024/01/10 08:28:53;;;;;;;217.98;177.75;;;;;;;;;;5118730;27;20026;-68
2024/01/10 08:31:18;;;;;;;174.15;146.20;;;;;;;;;;5117466;27;20420;-69
2024/01/10 08:33:44;;;;;;;233.32;189.00;;;;;;;;;;5118242;27;20084;-69
2024/01/10 08:36:10;;;;;;;222.35;183.98;;;;;;;;;;5116302;27;20027;-68
2024/01/10 08:38:35;;;;;;;216.27;189.77;;;;;;;;;;5118486;27;20095;-69
2024/01/10 08:41:01;;;;;;;227.05;188.70;;;;;;;;;;5116250;27;20024;-68
2024/01/10 08:43:26;;;;;;;168.30;139.60;;;;;;;;;;5119216;27;20027;-69
2024/01/10 08:45:52;;;;;;;227.15;203.32;;;;;;;;;;5117363;27;20123;-68
2024/01/10 08:48:17;;;;;;;149.23;132.25;;;;;;;;;;5118018;27;20020;-70
2024/01/10 08:50:43;;;;;;;133.70;109.10;;;;;;;;;;5118259;27;21732;-69
2024/01/10 08:53:09;;;;;;;110.55;98.03;;;;;;;;;;5105022;27;20042;-67
2024/01/10 08:55:36;;;;;;;93.07;82.15;;;;;;;;;;5115979;27;20030;-67
2024/01/10 08:58:02;;;;;;;70.72;62.45;;;;;;;;;;5117609;27;20039;-70
2024/01/10 09:00:28;;;;;;;56.95;50.75;;;;;;;;;;5119268;27;20080;-70
2024/01/10 09:02:54;;;;;;;98.57;72.15;;;;;;;;;;5100749;27;20092;-70
2024/01/10 09:05:21;;;;;;;107.38;79.88;;;;;;;;;;5116879;27;20065;-69
2024/01/10 09:07:47;;;;;;;114.68;77.95;;;;;;;;;;5118562;27;20043;-70
2024/01/10 09:10:12;;;;;;;137.07;101.57;;;;;;;;;;5116563;27;20326;-71
2024/01/10 09:12:37;;;;;;;91.20;73.97;;;;;;;;;;5118388;27;20041;-70
2024/01/10 09:15:03;;;;;;;33.80;30.10;;;;;;;;;;5116733;27;20104;-70
2024/01/10 09:17:28;;;;;;;180.27;120.00;;;;;;;;;;5118091;27;20130;-71
2024/01/10 09:19:54;;;;;;;109.40;81.20;;;;;;;;;;5118307;27;21294;-69
2024/01/10 09:22:19;;;;;;;112.03;83.22;;;;;;;;;;5116011;27;20284;-69
2024/01/10 09:24:44;;;;;;;44.00;38.17;;;;;;;;;;5117215;27;20092;-71
2024/01/10 09:27:10;;;;;;;60.65;47.42;;;;;;;;;;5116521;27;20037;-67
2024/01/10 09:29:35;;;;;;;49.15;41.85;;;;;;;;;;5112453;27;20035;-72
2024/01/10 09:32:01;;;;;;;78.13;58.17;;;;;;;;;;5106171;27;20027;-69
2024/01/10 09:34:26;;;;;;;73.60;60.90;;;;;;;;;;5115468;27;20027;-70
2024/01/10 09:36:52;;;;;;;158.18;139.77;;;;;;;;;;5117312;28;20449;-69
2024/01/10 09:39:18;;;;;;;81.75;73.53;;;;;;;;;;5118032;28;20091;-69
2024/01/10 09:41:48;;;;;;;36.72;32.72;;;;;;;;;;5118067;28;20114;-69
2024/01/10 09:44:13;;;;;;;29.33;26.10;;;;;;;;;;5117164;28;20074;-69
2024/01/10 09:46:40;;;;;;;34.40;30.70;;;;;;;;;;5115506;28;20066;-68
2024/01/10 09:49:06;;;;;;;49.90;41.08;;;;;;;;;;5117663;28;20031;-67
2024/01/10 09:51:33;;;;;;;65.13;46.67;;;;;;;;;;5116977;28;20354;-70
2024/01/10 09:54:01;;;;;;;49.88;39.75;;;;;;;;;;5116440;28;20101;-70
2024/01/10 09:56:27;;;;;;;44.42;35.10;;;;;;;;;;5118735;28;20100;-69
2024/01/10 09:58:53;;;;;;;53.95;48.17;;;;;;;;;;5115560;28;20114;-68
2024/01/10 10:01:20;;;;;;;46.90;41.15;;;;;;;;;;5117411;28;20118;-70
2024/01/10 10:03:46;;;;;;;33.97;30.10;;;;;;;;;;5113122;28;20122;-68
2024/01/10 10:06:11;;;;;;;31.10;27.80;;;;;;;;;;5116937;28;20130;-70
2024/01/10 10:08:38;;;;;;;49.03;44.20;;;;;;;;;;5116433;28;20074;-69
2024/01/10 10:11:03;;;;;;;33.78;30.27;;;;;;;;;;5115770;28;20403;-70
2024/01/10 10:13:29;;;;;;;82.20;73.65;;;;;;;;;;5110197;28;20027;-69
2024/01/10 10:15:59;;;;;;;61.58;54.88;;;;;;;;;;5096454;28;20111;-67
2024/01/10 10:18:24;;;;;;;;;;;;;;;;;;5104572;28;20096;-70
2024/01/10 10:21:05;;;;;;;38.70;32.27;;;;;;;;;;5097976;28;19915;-68
2024/01/10 10:23:31;;;;;;;130.85;75.13;;;;;;;;;;5098881;28;20259;-69
2024/01/10 10:25:56;;;;;;;128.73;67.85;;;;;;;;;;5099940;28;20357;-67
2024/01/10 10:28:21;;;;;;;80.47;50.03;;;;;;;;;;5094509;28;20024;-68
2024/01/10 10:30:47;;;;;;;32.17;27.02;;;;;;;;;;5100837;28;20015;-69
2024/01/10 10:33:12;;;;;;;65.05;45.60;;;;;;;;;;5099978;27;20034;-69
2024/01/10 10:35:37;;;;;;;72.53;50.17;;;;;;;;;;5100529;27;20450;-68
2024/01/10 10:38:03;;;;;;;30.13;26.70;;;;;;;;;;5100800;27;20070;-67
2024/01/10 10:40:28;;;;;;;33.67;30.10;;;;;;;;;;5103245;27;20039;-68
2024/01/10 10:42:57;;;;;;;30.95;27.85;;;;;;;;;;5101563;27;20102;-65
2024/01/10 10:45:26;;;;;;;66.97;45.25;;;;;;;;;;5100830;27;20442;-69
2024/01/10 10:47:56;;;;;;;35.15;27.10;;;;;;;;;;5101030;27;20124;-69
2024/01/10 10:50:22;;;;;;;37.30;30.48;;;;;;;;;;5100713;27;20027;-69
2024/01/10 10:52:48;;;;;;;23.95;20.15;;;;;;;;;;5119609;27;20372;-68
2024/01/10 10:55:17;;;;;;;29.02;26.00;;;;;;;;;;5120496;27;20079;-68
2024/01/10 10:57:46;;;;;;;23.80;20.60;;;;;;;;;;5121066;27;20434;-69
2024/01/10 11:00:15;;;;;;;43.35;36.03;;;;;;;;;;5118349;27;20465;-69
2024/01/10 11:02:41;;;;;;;27.80;24.60;;;;;;;;;;5120339;27;20042;-66
2024/01/10 11:05:08;;;;;;;28.17;25.13;;;;;;;;;;5102519;27;20033;-69
2024/01/10 11:07:35;;;;;;;149.52;127.43;;;;;;;;;;5104328;27;20092;-69
2024/01/10 11:10:02;;;;;;;48.45;43.38;;;;;;;;;;5101040;27;20040;-68
2024/01/10 11:12:35;;;;;;;105.40;72.53;;;;;;;;;;5103979;27;20589;-67
2024/01/10 11:15:02;;;;;;;33.28;27.45;;;;;;;;;;5101142;27;20361;-68
2024/01/10 11:17:46;;;;;;;16.50;14.80;;;;;;;;;;5101555;27;20027;-69
2024/01/10 11:20:39;;;;;;;45.88;37.10;;;;;;;;;;5117170;27;20039;-66
2024/01/10 11:23:20;;;;;;;152.48;99.82;;;;;;;;;;5102905;27;20111;-68
2024/01/10 11:25:45;;;;;;;182.52;109.43;;;;;;;;;;5104487;27;20332;-68
2024/01/10 11:28:12;;;;;;;47.65;37.15;;;;;;;;;;5099915;27;20409;-69
2024/01/10 11:30:48;;;;;;;32.13;27.73;;;;;;;;;;5098849;27;20076;-68
2024/01/10 11:33:21;;;;;;;46.83;39.95;;;;;;;;;;5099455;27;20055;-68
2024/01/10 11:36:05;;;;;;;27.15;23.60;;;;;;;;;;5099817;27;20133;-69
2024/01/10 11:38:31;;;;;;;30.73;24.42;;;;;;;;;;5098655;27;20225;-68
2024/01/10 11:40:56;;;;;;;44.63;38.30;;;;;;;;;;5100097;27;20971;-68
2024/01/10 11:43:21;;;;;;;28.00;24.80;;;;;;;;;;5099138;27;20038;-68
2024/01/10 11:45:51;;;;;;;68.93;58.75;;;;;;;;;;5101369;27;20091;-68
2024/01/10 11:48:17;;;;;;;73.60;65.40;;;;;;;;;;5063221;27;20907;-69
2024/01/10 11:50:42;;;;;;;80.70;66.80;;;;;;;;;;5098008;27;20032;-69
2024/01/10 11:53:08;;;;;;;69.72;59.63;;;;;;;;;;5095285;27;20077;-71
2024/01/10 11:55:52;;;;;;;116.72;92.32;;;;;;;;;;5100179;27;20105;-69
2024/01/10 11:58:17;;;;;;;39.67;32.42;;;;;;;;;;5098198;27;20035;-69
2024/01/10 12:00:42;;;;;;;43.42;36.88;;;;;;;;;;5101555;27;20462;-73
2024/01/10 12:03:08;;;;;;;50.10;41.50;;;;;;;;;;5101337;27;20031;-66
2024/01/10 12:05:36;;;;;;;44.38;37.80;;;;;;;;;;5102791;27;20449;-69
2024/01/10 12:08:06;;;;;;;40.97;34.95;;;;;;;;;;5102414;27;20027;-65
2024/01/10 12:10:36;;;;;;;67.78;51.22;;;;;;;;;;5100471;27;20043;-72
2024/01/10 12:13:02;;;;;;;57.75;48.42;;;;;;;;;;5096240;27;20066;-67
2024/01/10 12:15:28;;;;;;;65.70;54.05;;;;;;;;;;5096706;27;20031;-71
2024/01/10 12:17:53;;;;;;;40.70;36.25;;;;;;;;;;5100128;27;20020;-67
2024/01/10 12:20:18;;;;;;;36.08;32.28;;;;;;;;;;5098072;27;20398;-69
2024/01/10 12:22:44;;;;;;;52.00;42.28;;;;;;;;;;5098915;27;20027;-66
2024/01/10 12:25:10;;;;;;;258.45;203.30;;;;;;;;;;5103248;27;20027;-66
2024/01/10 12:27:35;;;;;;;64.68;53.35;;;;;;;;;;5099475;27;20036;-68
2024/01/10 12:30:02;;;;;;;43.38;36.85;;;;;;;;;;5096095;27;20439;-67
2024/01/10 12:32:28;;;;;;;25.52;21.63;;;;;;;;;;5096845;27;20032;-66
2024/01/10 12:35:03;;;;;;;22.23;19.08;;;;;;;;;;5097837;27;20430;-69
2024/01/10 12:37:29;;;;;;;89.82;76.25;;;;;;;;;;5093751;27;20031;-68
2024/01/10 12:39:54;;;;;;;72.05;61.67;;;;;;;;;;5097373;27;20757;-66
2024/01/10 12:42:19;;;;;;;33.90;30.20;;;;;;;;;;5097913;27;20060;-70
2024/01/10 12:44:46;;;;;;;22.95;20.50;;;;;;;;;;5101547;27;20024;-69
2024/01/10 12:47:21;;;;;;;109.60;94.38;;;;;;;;;;5096509;27;20039;-69
2024/01/10 12:49:47;;;;;;;122.38;101.63;;;;;;;;;;5097388;27;20035;-69
2024/01/10 12:52:15;;;;;;;49.45;42.03;;;;;;;;;;5101836;27;20054;-68
2024/01/10 12:54:42;;;;;;;35.63;30.55;;;;;;;;;;5098547;27;20031;-65
2024/01/10 12:57:07;;;;;;;39.25;29.40;;;;;;;;;;5096587;27;20057;-70
2024/01/10 12:59:33;;;;;;;33.20;27.30;;;;;;;;;;5081108;27;20455;-70
2024/01/10 13:01:58;;;;;;;19.67;17.48;;;;;;;;;;5102297;27;20647;-69
2024/01/10 13:04:24;;;;;;;34.60;30.83;;;;;;;;;;5101302;27;20408;-72
2024/01/10 13:06:49;;;;;;;40.85;36.42;;;;;;;;;;5100693;27;20152;-71
2024/01/10 13:09:15;;;;;;;35.58;31.67;;;;;;;;;;5098672;27;20066;-69
2024/01/10 13:11:40;;;;;;;83.35;74.82;;;;;;;;;;5095745;27;20023;-68
2024/01/10 13:14:06;;;;;;;139.82;102.38;;;;;;;;;;5117253;27;20048;-65
2024/01/10 13:16:31;;;;;;;58.97;49.70;;;;;;;;;;5114384;27;20130;-66
2024/01/10 13:18:58;;;;;;;96.82;78.18;;;;;;;;;;5104344;27;20077;-68
2024/01/10 13:21:24;;;;;;;41.00;35.38;;;;;;;;;;5099070;27;20397;-67
2024/01/10 13:23:51;;;;;;;30.98;26.80;;;;;;;;;;5095604;27;20023;-69
2024/01/10 13:26:16;;;;;;;29.52;26.05;;;;;;;;;;5096819;27;20047;-66
2024/01/10 13:28:41;;;;;;;29.98;24.35;;;;;;;;;;5096320;27;20050;-67
2024/01/10 13:31:07;;;;;;;23.52;18.65;;;;;;;;;;5099177;27;20019;-66
2024/01/10 13:33:32;;;;;;;24.85;22.20;;;;;;;;;;5096963;27;20126;-67
2024/01/10 13:35:58;;;;;;;27.58;22.27;;;;;;;;;;5095341;28;20100;-67
2024/01/10 13:38:25;;;;;;;50.83;45.22;;;;;;;;;;5095654;28;20035;-68
2024/01/10 13:40:51;;;;;;;67.20;53.28;;;;;;;;;;5097418;28;20067;-67
2024/01/10 13:43:16;;;;;;;26.77;23.67;;;;;;;;;;5098747;28;20061;-67
2024/01/10 13:45:42;;;;;;;77.25;56.33;;;;;;;;;;5099015;28;21168;-66
2024/01/10 13:48:08;;;;;;;33.60;28.13;;;;;;;;;;5101662;27;20118;-67
2024/01/10 13:50:33;;;;;;;41.00;29.98;;;;;;;;;;5094190;28;20028;-67
2024/01/10 13:52:58;;;;;;;59.95;47.97;;;;;;;;;;5090543;28;20027;-68
2024/01/10 13:55:24;;;;;;;56.38;41.50;;;;;;;;;;5092881;28;20028;-66
2024/01/10 13:57:50;;;;;;;49.63;37.72;;;;;;;;;;5093397;28;20050;-66
2024/01/10 14:00:16;;;;;;;42.13;32.08;;;;;;;;;;5099484;28;20058;-66
2024/01/10 14:02:42;;;;;;;48.58;38.50;;;;;;;;;;5094724;28;20044;-66
2024/01/10 14:05:09;;;;;;;31.85;25.63;;;;;;;;;;5092937;28;20051;-68
2024/01/10 14:07:35;;;;;;;46.33;35.75;;;;;;;;;;5094322;27;20469;-68
2024/01/10 14:10:00;;;;;;;54.22;44.03;;;;;;;;;;5101891;27;20154;-68
2024/01/10 14:12:26;;;;;;;49.45;38.90;;;;;;;;;;5104363;27;20020;-67